National Weather Service United States Department of Commerce

 

Aviation Weather Center TAFs Radar Soundings/Model Data Soaring
NWS Wichita Home Page Hazardous Weather Outlook NWS Graphical Forecasts

 

Wichita (ICT)
Hutchinson (HUT)
Tactical Decision Aid
 
Tactical Decision Aid
 

 
000
FTUS43 KICT 021559 AAO
TAFICT
TAF AMD
KICT 021559Z 0216/0312 17020G30KT P6SM SCT025 BKN120
TEMPO 0216/0219 BKN025
FM030200 02015KT P6SM OVC015
FM030600 35015G25KT 6SM -RA BR SCT007 OVC015
FM030900 35015G25KT P6SM BKN007=
 
000
FTUS43 KICT 021451 AAQ
TAFHUT
TAF AMD
KHUT 021451Z 0215/0312 17015G25KT P6SM SCT025 SCT050
TEMPO 0215/0218 BKN025
FM030200 36015G25KT 6SM -RA BR SCT007 OVC015
FM030900 35015G25KT P6SM BKN007=
Salina (SLN) Russell (RSL)
Tactical Decision Aid
Tactical Decision Aid

 
000
FTUS43 KICT 021453 AAN
TAFSLN
TAF AMD
KSLN 021453Z 0215/0312 16010G20KT P6SM SCT020 BKN040
TEMPO 0215/0218 BKN020
FM022300 35015G25KT P6SM BKN020
FM030300 34015G25KT 6SM -RA BR BKN007
FM031000 34020G30KT P6SM SCT007 OVC015=

 
000
FTUS43 KICT 021138
TAFRSL
TAF
KRSL 021138Z 0212/0312 13010KT P6SM BKN020
FM021800 34015G25KT P6SM OVC015
FM030500 35020G30KT P6SM -FZRA SCT007 OVC015
FM031000 35020G30KT P6SM OVC015=
Chanute (CNU) Great Bend (GBD)
Tactical Decision Aid
Tactical Decision Aid

 
000
FTUS43 KICT 021138
TAFCNU
TAF
KCNU 021138Z 0212/0312 15015G25KT P6SM -SHRA SCT060 BKN120
WS020/18045KT
TEMPO 0212/0215 15020G35KT -RA BKN060
FM021700 17020G30KT P6SM SCT050 BKN120
FM030100 15010KT P6SM SCT015
FM030800 19010KT P6SM SHRA SCT007 BKN015
FM031100 34015KT 6SM -RA BKN007=

 
000
FTUS43 KICT 021138
TAFGBD
TAF
KGBD 021138Z 0212/0312 14015KT P6SM BKN020
FM021900 35015G30KT P6SM OVC015
FM030500 35015G25KT P6SM SCT007 OVC015=
 
NWS Wichita Aviation Forecast Discussion

 

 

IMPORTANT: This page is a tool to help pilots better visualize weather and weather-related hazards, and is not a substitute for a weather briefing obtained from a Flight Service Station (1-800-WXBRIEF). The information contained here does not meet the FAA requirements for a pre-flight weather brief. Therefore, it is important that pilots call and obtain a briefing from an FAA Flight Service Specialist.